KRNT - Renton, Washington, USA
Distance from station: W 21mi, 33km
Updated: Tue, 07-Feb-2023 11:05am PST
Light rain, Overcast
Light rain, Overcast
 Wind from SSW
Wind: SSW 9 mph , 15 km/h, Gust: 24 mph , 39 km/h
Temperature: 48°F , 9°C
Wind Chill: 44°F , 7°C
Dew Point: 43°F , 6°C
Humidity: 82%
Barometer: 30.12 inHg , 1020 hPa
Visibility: 10 miles , 16 km
Cloud details: 2800 ft
3500 ft
2023/02/07 19:05 KRNT 071905Z 20008G21KT 10SM -RA BKN028 OVC035 09/06 A3012 RMK AO2 P0000 T00940056
KBFI - Seattle/Boeing, Washington, USA
Distance from station: W 25mi, 41km
Updated: Tue, 07-Feb-2023 10:53am PST

 Wind from S
Wind: S 13 mph , 20 km/h, Gust: 25 mph , 41 km/h
Temperature: 48°F , 9°C
Wind Chill: 43°F , 6°C
Dew Point: 43°F , 6°C
Humidity: 82%
Barometer: 30.11 inHg , 1019.6 hPa
Visibility: 10 miles , 16 km
Cloud details: 2800 ft
3400 ft
2023/02/07 18:53 KBFI 071853Z 19011G22KT 10SM BKN028 OVC034 09/06 A3011 RMK AO2 PK WND 15026/1830 RAE40 SLP196 P0000 T00940061
 
KSEA - Seattle/Metro, Washington, USA
Distance from station: W 25mi, 41km
Updated: Tue, 07-Feb-2023 11:00am PST
Light rain, Overcast
Light rain, Overcast
 Wind from S
Wind: S 15 mph , 24 km/h, Gust: 22 mph , 35 km/h
Temperature: 46°F , 8°C
Wind Chill: 40°F , 4°C
Dew Point: 43°F , 6°C
Humidity: 87%
Barometer: 30.11 inHg , 1019.6 hPa
Visibility: 10 miles , 16 km
Cloud details: 2400 ft
3900 ft
4600 ft
2023/02/07 19:00 KSEA 071900Z 19013G19KT 10SM -RA SCT024 BKN039 OVC046 08/06 A3011 RMK AO2 P0000 T00830056
KSMP - Stampede Pass, Washington, USA
Distance from station: SE 26mi, 41km
Updated: Tue, 07-Feb-2023 11:00am PST
Snow, Fog, Overcast
Snow, Fog, Overcast
 Wind from calm
Wind: Calm
Temperature: 34°F , 1°C
Dew Point: 30°F , -1°C
Humidity: 87%
Barometer: 30.07 inHg , 1018.3 hPa
Summary: Snow, Fog
Visibility: 1/4 mile , 0.4 km
Cloud details: 700 ft
2023/02/07 19:00 KSMP 071900Z AUTO 00000KT 1/4SM SN FG VV007 01/M01 A3007 RMK AO2 P0001 T00061006
 
KPLU - Puyallup/Thun, Washington, USA
Distance from station: SW 36mi, 59km
Updated: Wed, 28-Dec-2022 9:55pm PST
NOT Current

 Wind from calm
Wind: Calm
Temperature: 41°F , 5°C
Dew Point: 41°F , 5°C
Humidity: 100%
Barometer: 29.78 inHg , 1008.5 hPa
Visibility: 10 miles , 16 km
Cloud details: 3800 ft
2022/12/29 05:55 KPLU 290555Z AUTO 00000KT 10SM OVC038 05/05 A2978 RMK AO2
KPAE - Everett, Washington, USA
Distance from station: NW 37mi, 60km
Updated: Tue, 07-Feb-2023 10:53am PST

 Wind from S
Wind: S 18 mph , 30 km/h, Gust: 28 mph , 44 km/h
Temperature: 46°F , 8°C
Wind Chill: 39°F , 4°C
Dew Point: 43°F , 6°C
Humidity: 87%
Barometer: 30.08 inHg , 1018.6 hPa
Visibility: 9 miles , 14 km
Cloud details: 1400 ft
2023/02/07 18:53 KPAE 071853Z 19016G24KT 9SM OVC014 08/06 A3008 RMK AO2 RAE41 SLP188 P0000 T00780056
 
KTIW - Tacoma, Washington, USA
Distance from station: WSW 41mi, 66km
Updated: Tue, 07-Feb-2023 10:53am PST
Light rain, Overcast
Light rain, Overcast
 Wind from SSW
Wind: SSW 21 mph , 33 km/h, Gust: 36 mph , 57 km/h
Temperature: 46°F , 8°C
Wind Chill: 38°F , 3°C
Dew Point: 43°F , 6°C
Humidity: 87%
Barometer: 30.12 inHg , 1020 hPa
Visibility: 10 miles , 16 km
Cloud details: 2000 ft
6000 ft
7500 ft
2023/02/07 18:53 KTIW 071853Z 20018G31KT 10SM -RA SCT020 BKN060 OVC075 08/06 A3012 RMK AO2 PK WND 19035/1816 SLP201 P0001 T00830056
KTCM - Tacoma/Mc Chord, Washington, USA
Distance from station: SW 42mi, 67km
Updated: Tue, 07-Feb-2023 8:09am PST
NOT Current
Light rain, Partly cloudy
Light rain, Partly cloudy
 Wind from S
Wind: S 10 mph , 17 km/h
Temperature: 45°F , 7°C
Wind Chill: 40°F , 4°C
Dew Point: 45°F , 7°C
Humidity: 100%
Barometer: 30.13 inHg , 1020.3 hPa
Visibility: 10 miles , 16 km
Cloud details: 2300 ft
6000 ft
7500 ft
2023/02/07 16:09 KTCM 071609Z AUTO 18009KT 10SM -RA FEW023 FEW060 SCT075 07/07 A3013 RMK AO2 RAE00RAB09 SLP208
 
KPWT - Bremerton Ntnl, Washington, USA
Distance from station: W 45mi, 73km
Updated: Tue, 07-Feb-2023 11:04am PST
Light rain, Overcast
Light rain, Overcast
 Wind from SSW
Wind: SSW 20 mph , 31 km/h, Gust: 29 mph , 46 km/h
Temperature: 45°F , 7°C
Wind Chill: 37°F , 3°C
Dew Point: 45°F , 7°C
Humidity: 100%
Barometer: 30.09 inHg , 1019 hPa
Visibility: 10 miles , 16 km
Cloud details: 500 ft
2023/02/07 19:04 KPWT 071904Z AUTO 20017G25KT 10SM -RA OVC005 07/07 A3009 RMK AO2 P0000
KGRF - Fort Lewis/Gray, Washington, USA
Distance from station: SW 48mi, 77km
Updated: Tue, 07-Feb-2023 8:05am PST
NOT Current
Light rain, Few clouds
Light rain, Few clouds
 Wind from SSE
Wind: SSE 17 mph , 28 km/h, Gust: 28 mph , 44 km/h
Temperature: 46°F , 8°C
Wind Chill: 39°F , 4°C
Dew Point: 41°F , 5°C
Humidity: 82%
Barometer: 30.11 inHg , 1019.6 hPa
Visibility: 10 miles , 16 km
Cloud details: 2200 ft
5500 ft
2023/02/07 16:05 KGRF 071605Z 15015G24KT 10SM -RA FEW022 FEW055 08/05 A3011 RMK AO2A RAB05 SLP201 $
 
KAWO - Arlington Muni, Washington, USA
Distance from station: NNW 50mi, 80km
Updated: Tue, 07-Feb-2023 10:56am PST
Light rain, Overcast
Light rain, Overcast
 Wind from S
Wind: S 16 mph , 26 km/h
Temperature: 46°F , 8°C
Wind Chill: 39°F , 4°C
Dew Point: 45°F , 7°C
Humidity: 93%
Barometer: 30.09 inHg , 1019 hPa
Visibility: 10 miles , 16 km
Cloud details: 1900 ft
2023/02/07 18:56 KAWO 071856Z AUTO 17014KT 10SM -RA OVC019 08/07 A3009 RMK AO2 RAB03 SLP194 P0001 T00780067